Time;durP1;ratioP1;P1;durP2;ratioP2;P2;SDS_P1;SDS_P2;PMS_P1;PMS_P2;Temp;Humidity;BMP_temperature;BMP_pressure;BME280_temperature;BME280_humidity;BME280_pressure;Samples;Min_cycle;Max_cycle;Signal;HPM_P1;HPM_P2
2023/12/07 00:01:08;;;;;;;19.15;13.30;;;;;;;2.31;66.30;100690.42;1747471;82;21386;-91
2023/12/07 00:04:15;;;;;;;29.00;17.98;;;;;;;2.32;66.33;100688.58;1744322;82;21330;-88
2023/12/07 00:07:23;;;;;;;42.05;32.60;;;;;;;2.50;66.17;100689.91;1693377;82;21338;-88
2023/12/07 00:10:30;;;;;;;47.17;27.80;;;;;;;2.47;66.25;100699.58;1731847;81;21279;-90
2023/12/07 00:13:37;;;;;;;32.33;21.48;;;;;;;2.49;66.10;100692.20;1739981;82;21931;-88
2023/12/07 00:16:43;;;;;;;45.75;30.97;;;;;;;2.54;66.07;100692.72;1740655;82;21290;-92
2023/12/07 00:20:21;;;;;;;25.88;16.62;;;;;;;2.62;65.90;100683.55;1740901;82;21898;-89
2023/12/07 00:23:45;;;;;;;25.35;13.22;;;;;;;2.69;65.96;100690.23;1737126;82;21315;-89
2023/12/07 00:26:52;;;;;;;23.27;12.58;;;;;;;2.73;65.66;100693.08;1735461;81;21341;-88
2023/12/07 00:29:58;;;;;;;31.87;13.78;;;;;;;2.78;65.47;100687.32;1746239;81;21323;-91
2023/12/07 00:33:05;;;;;;;25.72;13.78;;;;;;;2.87;65.09;100694.72;1746766;82;21863;-88
2023/12/07 00:36:12;;;;;;;23.40;12.43;;;;;;;2.83;64.49;100696.42;1745596;82;21287;-88
2023/12/07 00:39:20;;;;;;;21.12;12.05;;;;;;;2.72;64.48;100699.43;1735502;82;21871;-88
2023/12/07 00:42:28;;;;;;;26.37;12.10;;;;;;;2.62;64.70;100703.81;1706068;82;21890;-88
2023/12/07 00:45:34;;;;;;;26.65;13.78;;;;;;;2.79;64.05;100706.59;1694046;84;21330;-88
2023/12/07 00:48:40;;;;;;;24.95;12.73;;;;;;;2.74;63.65;100711.00;1691259;85;21357;-91
2023/12/07 00:51:46;;;;;;;37.33;12.90;;;;;;;2.75;63.43;100719.47;1714174;81;21255;-88
2023/12/07 00:54:53;;;;;;;29.85;12.82;;;;;;;2.65;63.61;100709.48;1739342;81;21301;-88
2023/12/07 00:58:01;;;;;;;24.25;11.97;;;;;;;2.68;63.63;100711.47;1740610;82;21398;-88
2023/12/07 01:01:09;;;;;;;26.85;12.60;;;;;;;2.78;63.45;100713.84;1740601;82;21303;-91
2023/12/07 01:04:16;;;;;;;23.07;12.30;;;;;;;2.78;63.24;100715.69;1738776;82;21856;-88
2023/12/07 01:07:23;;;;;;;32.08;13.65;;;;;;;2.93;62.84;100709.59;1733230;83;21888;-88
2023/12/07 01:10:23;;;;;;;24.60;13.53;;;;;;;2.88;63.00;100713.14;1724023;82;21297;-88
2023/12/07 01:13:30;;;;;;;30.43;14.07;;;;;;;2.88;63.28;100709.95;1714170;83;21355;-88
2023/12/07 01:16:37;;;;;;;28.75;14.38;;;;;;;2.73;63.83;100707.93;1698599;83;21313;-89
2023/12/07 01:19:44;;;;;;;38.02;16.37;;;;;;;2.62;64.30;100706.52;1698793;84;21296;-88
2023/12/07 01:22:51;;;;;;;39.08;17.05;;;;;;;2.33;65.13;100705.14;1699233;83;21326;-88
2023/12/07 01:25:57;;;;;;;34.73;16.50;;;;;;;2.02;66.30;100704.69;1725236;81;21275;-91
2023/12/07 01:29:04;;;;;;;39.23;18.17;;;;;;;2.01;66.80;100707.02;1737844;82;21136;-91
2023/12/07 01:32:11;;;;;;;36.95;17.32;;;;;;;2.14;66.63;100703.80;1737164;82;21899;-91
2023/12/07 01:35:17;;;;;;;42.30;18.20;;;;;;;2.18;66.50;100708.00;1736774;82;21791;-90
2023/12/07 01:38:23;;;;;;;55.38;18.30;;;;;;;2.14;66.83;100703.80;1736893;82;21320;-88
2023/12/07 01:41:29;;;;;;;40.23;17.62;;;;;;;2.26;66.58;100701.55;1735480;81;21291;-88
2023/12/07 01:44:35;;;;;;;41.15;17.27;;;;;;;2.16;67.02;100697.78;1734451;82;21701;-88
2023/12/07 01:47:36;;;;;;;47.10;16.85;;;;;;;2.22;66.96;100695.14;1737532;82;21896;-88
2023/12/07 01:50:31;;;;;;;37.80;19.07;;;;;;;2.25;67.14;100699.80;1737233;82;21334;-88
2023/12/07 01:53:37;;;;;;;33.98;15.78;;;;;;;2.33;67.05;100697.04;1737476;82;21314;-88
2023/12/07 01:56:43;;;;;;;36.13;16.20;;;;;;;2.27;67.07;100688.92;1738969;82;21255;-88
2023/12/07 01:59:49;;;;;;;42.38;17.35;;;;;;;2.07;67.79;100687.70;1745263;82;21200;-88
2023/12/07 02:02:55;;;;;;;44.63;16.82;;;;;;;2.13;68.05;100677.79;1749887;81;21290;-90
2023/12/07 02:06:03;;;;;;;43.25;19.27;;;;;;;2.30;67.65;100677.37;1756906;81;21295;-88
2023/12/07 02:09:11;;;;;;;36.80;18.60;;;;;;;2.24;67.82;100681.89;1761850;81;21284;-88
2023/12/07 02:12:19;;;;;;;36.40;16.45;;;;;;;2.13;68.32;100683.19;1746343;81;21310;-91
2023/12/07 02:15:25;;;;;;;41.20;18.10;;;;;;;2.25;68.16;100680.05;1763870;81;21279;-91
2023/12/07 02:18:40;;;;;;;35.10;16.77;;;;;;;2.21;68.31;100687.55;1728819;81;21356;-91
2023/12/07 02:21:54;;;;;;;33.28;15.30;;;;;;;2.15;68.38;100687.97;1706880;84;21282;-88
2023/12/07 02:25:15;;;;;;;30.82;15.78;;;;;;;2.26;68.08;100684.02;1691115;84;21798;-87
2023/12/07 02:28:23;;;;;;;31.27;15.32;;;;;;;2.26;67.98;100677.75;1727011;81;21290;-91
2023/12/07 02:31:29;;;;;;;34.40;15.78;;;;;;;2.07;68.26;100673.31;1733041;82;21266;-88
2023/12/07 02:34:36;;;;;;;31.00;15.18;;;;;;;2.18;68.16;100676.96;1734715;82;21283;-91
2023/12/07 02:37:55;;;;;;;24.77;14.28;;;;;;;2.27;68.07;100673.58;1734831;82;21689;-92
2023/12/07 02:41:02;;;;;;;22.67;11.68;;;;;;;2.33;67.67;100679.00;1723838;81;21899;-92
2023/12/07 02:44:08;;;;;;;26.23;14.20;;;;;;;2.51;67.17;100674.06;1744386;81;21276;-91
2023/12/07 02:47:14;;;;;;;25.55;13.30;;;;;;;2.30;67.51;100667.93;1744867;82;21287;-88
2023/12/07 02:50:19;;;;;;;25.45;15.03;;;;;;;2.21;68.04;100683.95;1745270;82;21899;-88
2023/12/07 02:53:26;;;;;;;29.10;12.90;;;;;;;2.25;67.88;100675.52;1744488;82;21315;-88
2023/12/07 02:56:32;;;;;;;27.48;13.18;;;;;;;2.21;67.94;100684.84;1740732;82;21232;-88
2023/12/07 02:59:39;;;;;;;29.18;15.13;;;;;;;2.32;67.98;100684.03;1738774;82;21295;-91
2023/12/07 03:02:47;;;;;;;30.20;15.48;;;;;;;2.23;68.32;100683.38;1738301;82;21847;-90
2023/12/07 03:05:53;;;;;;;30.92;15.55;;;;;;;2.17;68.59;100679.30;1737935;82;21328;-92
2023/12/07 03:08:59;;;;;;;31.52;16.35;;;;;;;2.20;68.69;100688.98;1738211;82;21960;-92
2023/12/07 03:12:07;;;;;;;30.00;14.95;;;;;;;2.14;68.93;100699.75;1731221;81;21283;-91
2023/12/07 03:15:14;;;;;;;31.12;14.55;;;;;;;2.28;68.66;100683.39;1735399;82;21290;-91
2023/12/07 03:18:20;;;;;;;31.82;15.43;;;;;;;2.34;68.78;100690.66;1734501;82;21294;-92
2023/12/07 03:21:27;;;;;;;33.90;16.97;;;;;;;2.32;68.67;100685.88;1734097;82;21278;-87
2023/12/07 03:24:34;;;;;;;37.70;17.30;;;;;;;2.43;68.75;100693.53;1735659;82;21819;-91
2023/12/07 03:27:41;;;;;;;38.17;17.50;;;;;;;2.26;69.01;100699.34;1739135;82;21591;-89
2023/12/07 03:30:48;;;;;;;33.58;15.72;;;;;;;2.25;69.35;100708.39;1738919;82;21294;-91
2023/12/07 03:34:01;;;;;;;40.30;17.70;;;;;;;2.20;69.62;100703.83;1738047;82;21844;-89
2023/12/07 03:37:07;;;;;;;36.25;16.87;;;;;;;2.05;70.25;100705.82;1737400;82;21311;-91
2023/12/07 03:40:13;;;;;;;43.90;17.50;;;;;;;2.14;70.34;100707.84;1738905;82;21311;-89
2023/12/07 03:43:20;;;;;;;41.28;16.15;;;;;;;1.79;71.21;100707.23;1736725;82;21311;-91
2023/12/07 03:46:28;;;;;;;37.73;17.70;;;;;;;1.60;72.27;100712.23;1737459;82;21212;-88
2023/12/07 03:49:34;;;;;;;40.45;18.35;;;;;;;1.97;71.42;100708.20;1738075;82;21315;-91
2023/12/07 03:52:40;;;;;;;37.73;17.80;;;;;;;1.68;72.12;100704.43;1738378;82;21318;-91
2023/12/07 03:55:47;;;;;;;40.23;18.23;;;;;;;1.66;72.57;100709.09;1739017;82;21284;-91
2023/12/07 03:58:53;;;;;;;41.13;17.40;;;;;;;1.71;72.58;100702.02;1735803;82;21338;-89
2023/12/07 04:01:58;;;;;;;38.83;17.52;;;;;;;1.63;72.90;100700.34;1745226;82;21319;-89
2023/12/07 04:05:05;;;;;;;37.10;17.30;;;;;;;1.48;73.48;100687.47;1744324;82;21311;-91
2023/12/07 04:08:13;;;;;;;29.27;15.20;;;;;;;1.61;73.23;100688.33;1744501;82;21942;-91
2023/12/07 04:11:19;;;;;;;34.60;16.45;;;;;;;1.55;73.46;100694.14;1745040;82;21325;-88
2023/12/07 04:14:27;;;;;;;39.38;17.80;;;;;;;1.87;72.72;100680.17;1725814;82;21281;-91
2023/12/07 04:17:33;;;;;;;36.20;18.20;;;;;;;1.74;72.92;100686.94;1714393;83;21356;-88
2023/12/07 04:20:39;;;;;;;40.88;17.32;;;;;;;1.72;73.10;100685.71;1690782;83;21314;-89
2023/12/07 04:23:46;;;;;;;37.98;17.02;;;;;;;1.68;73.27;100692.30;1696646;83;21338;-90
2023/12/07 04:26:53;;;;;;;38.98;17.20;;;;;;;1.87;72.81;100686.92;1699165;82;21372;-88
2023/12/07 04:30:00;;;;;;;36.60;17.42;;;;;;;1.94;72.67;100689.08;1745324;82;21303;-90
2023/12/07 04:33:07;;;;;;;30.15;15.70;;;;;;;1.98;72.42;100691.07;1746845;82;21314;-88
2023/12/07 04:36:19;;;;;;;32.80;13.93;;;;;;;1.92;72.60;100687.45;1747549;82;21283;-91
2023/12/07 04:39:22;;;;;;;32.98;16.67;;;;;;;2.00;72.58;100691.80;1747717;82;21274;-90
2023/12/07 04:42:28;;;;;;;33.95;15.95;;;;;;;2.14;71.87;100693.49;1744330;82;21323;-90
2023/12/07 04:45:35;;;;;;;39.20;16.45;;;;;;;2.21;71.73;100686.19;1745688;82;22037;-87
2023/12/07 04:48:42;;;;;;;36.65;16.97;;;;;;;2.25;71.65;100694.41;1746510;82;21302;-90
2023/12/07 04:51:48;;;;;;;39.05;17.17;;;;;;;2.26;71.58;100702.91;1747611;82;21279;-91
2023/12/07 04:54:55;;;;;;;45.95;18.10;;;;;;;2.19;71.72;100697.57;1747638;82;21350;-91
2023/12/07 04:58:01;;;;;;;43.23;18.25;;;;;;;2.03;72.31;100694.30;1735895;82;21318;-89
2023/12/07 05:01:08;;;;;;;38.20;16.82;;;;;;;2.24;71.61;100694.53;1718723;83;21306;-89
2023/12/07 05:04:15;;;;;;;34.25;17.65;;;;;;;2.19;71.56;100698.06;1720100;83;21310;-92
2023/12/07 05:07:21;;;;;;;38.73;17.48;;;;;;;2.30;71.58;100706.22;1719893;83;21287;-88
2023/12/07 05:10:28;;;;;;;40.40;17.25;;;;;;;2.30;71.49;100698.12;1718908;82;21329;-91
2023/12/07 05:13:35;;;;;;;39.03;17.30;;;;;;;2.21;71.67;100707.78;1736979;81;21297;-91
2023/12/07 05:16:42;;;;;;;32.95;16.55;;;;;;;2.28;71.23;100695.54;1738954;82;21278;-89
2023/12/07 05:19:49;;;;;;;31.82;16.17;;;;;;;2.26;71.35;100711.49;1740587;82;21796;-89
2023/12/07 05:22:56;;;;;;;36.33;16.32;;;;;;;2.05;71.83;100703.12;1739717;82;21289;-89
2023/12/07 05:26:03;;;;;;;34.98;17.17;;;;;;;2.07;72.17;100703.00;1740575;82;21250;-89
2023/12/07 05:29:11;;;;;;;33.13;15.68;;;;;;;1.99;72.33;100719.77;1739137;81;21803;-91
2023/12/07 05:32:17;;;;;;;35.45;16.02;;;;;;;2.09;72.17;100715.42;1738891;82;21759;-92
2023/12/07 05:35:26;;;;;;;30.37;16.15;;;;;;;1.98;72.40;100710.81;1740134;81;21314;-91
2023/12/07 05:38:33;;;;;;;38.20;18.45;;;;;;;1.94;72.77;100711.15;1722205;82;21342;-90
2023/12/07 05:41:39;;;;;;;41.75;18.85;;;;;;;2.07;72.26;100709.28;1718765;83;21855;-89
2023/12/07 05:44:47;;;;;;;41.10;18.02;;;;;;;2.20;71.88;100712.78;1707017;81;21356;-92
2023/12/07 05:47:55;;;;;;;34.53;18.10;;;;;;;2.12;72.00;100705.77;1701610;83;21846;-90
2023/12/07 05:51:03;;;;;;;36.90;18.23;;;;;;;2.20;71.77;100707.87;1736048;82;21337;-91
2023/12/07 05:54:09;;;;;;;33.85;16.30;;;;;;;2.23;71.80;100705.82;1747163;81;21292;-92
2023/12/07 05:57:16;;;;;;;36.00;19.77;;;;;;;1.92;72.72;100710.38;1746754;80;21323;-90
2023/12/07 06:00:22;;;;;;;38.80;18.32;;;;;;;1.94;72.90;100725.98;1725907;81;21267;-88
2023/12/07 06:03:29;;;;;;;38.80;17.80;;;;;;;1.86;73.06;100715.73;1719638;82;21286;-89
2023/12/07 06:06:36;;;;;;;36.65;18.25;;;;;;;2.03;72.64;100715.39;1706980;82;21864;-87
2023/12/07 06:09:43;;;;;;;32.30;15.70;;;;;;;1.98;72.60;100717.56;1702602;84;21331;-90
2023/12/07 06:12:50;;;;;;;34.55;16.80;;;;;;;2.02;72.44;100724.47;1702595;83;21299;-87
2023/12/07 06:16:01;;;;;;;34.23;16.93;;;;;;;1.99;72.61;100722.47;1682602;83;21334;-90
2023/12/07 06:19:06;;;;;;;33.75;15.90;;;;;;;2.04;72.46;100722.99;1711417;82;21281;-87
2023/12/07 06:22:13;;;;;;;31.60;15.50;;;;;;;2.08;72.44;100719.09;1705772;82;21339;-87
2023/12/07 06:25:19;;;;;;;30.95;18.27;;;;;;;2.01;72.34;100730.80;1698441;84;21848;-90
2023/12/07 06:28:26;;;;;;;23.92;13.53;;;;;;;2.08;72.05;100731.24;1698309;82;22423;-90
2023/12/07 06:34:49;;;;;;;41.85;21.17;;;;;;;2.08;71.77;100723.15;1726927;80;21168;-88
2023/12/07 06:37:57;;;;;;;22.45;13.13;;;;;;;2.11;71.60;100709.90;1705671;82;21303;-87
2023/12/07 06:41:04;;;;;;;34.95;14.20;;;;;;;2.07;71.80;100724.59;1720694;82;21851;-90
2023/12/07 06:44:10;;;;;;;23.55;14.53;;;;;;;2.01;71.71;100716.45;1726465;81;21607;-90
2023/12/07 06:47:15;;;;;;;23.07;14.33;;;;;;;2.01;71.86;100724.55;1706033;82;21821;-90
2023/12/07 06:50:21;;;;;;;24.82;15.63;;;;;;;2.19;71.29;100720.52;1723522;82;21900;-87
2023/12/07 06:53:28;;;;;;;33.55;13.60;;;;;;;2.27;71.12;100717.26;1732042;80;21632;-90
2023/12/07 06:56:34;;;;;;;27.85;13.80;;;;;;;2.19;71.00;100715.11;1704971;83;21853;-88
2023/12/07 06:59:44;;;;;;;23.70;14.15;;;;;;;2.11;71.23;100712.11;1706488;82;21283;-87
2023/12/07 07:02:52;;;;;;;22.80;14.18;;;;;;;2.06;71.55;100715.63;1733561;81;21925;-87
2023/12/07 07:05:59;;;;;;;34.80;17.70;;;;;;;2.16;71.36;100717.17;1708196;82;21295;-87
2023/12/07 07:09:07;;;;;;;22.55;13.13;;;;;;;2.22;71.47;100716.25;1711094;82;21266;-87
2023/12/07 07:12:12;;;;;;;23.12;13.18;;;;;;;2.21;71.62;100723.98;1712237;82;21922;-87
2023/12/07 07:15:19;;;;;;;22.93;12.33;;;;;;;2.34;71.24;100731.16;1721491;81;21890;-87
2023/12/07 07:18:25;;;;;;;23.75;13.28;;;;;;;2.33;71.37;100735.70;1712209;82;21369;-87
2023/12/07 07:21:32;;;;;;;20.17;12.85;;;;;;;2.25;71.91;100729.50;1730324;81;21317;-87
2023/12/07 07:24:40;;;;;;;23.30;13.62;;;;;;;2.20;72.00;100721.37;1709810;83;21988;-87
2023/12/07 07:27:48;;;;;;;23.70;13.62;;;;;;;2.32;71.81;100720.97;1732917;81;21321;-87
2023/12/07 07:30:55;;;;;;;26.30;14.63;;;;;;;2.39;71.66;100726.27;1735249;81;21835;-90
2023/12/07 07:34:02;;;;;;;19.60;12.03;;;;;;;2.26;72.08;100732.59;1707003;82;21337;-87
2023/12/07 07:37:08;;;;;;;22.67;12.85;;;;;;;2.34;71.75;100727.11;1710119;82;21354;-90
2023/12/07 07:40:17;;;;;;;26.75;14.78;;;;;;;2.28;72.22;100733.33;1713172;82;21307;-87
2023/12/07 07:43:23;;;;;;;22.98;14.07;;;;;;;2.47;71.56;100734.19;1708456;82;21306;-90
2023/12/07 07:46:30;;;;;;;20.20;12.13;;;;;;;2.59;71.30;100733.77;1719351;82;21288;-90
2023/12/07 07:49:36;;;;;;;22.62;14.38;;;;;;;2.69;70.98;100719.09;1711675;82;21299;-91
2023/12/07 07:52:42;;;;;;;23.87;12.37;;;;;;;2.73;70.97;100733.59;1712550;82;21288;-90
2023/12/07 07:55:49;;;;;;;23.22;14.38;;;;;;;2.78;71.00;100732.76;1691610;82;21264;-90
2023/12/07 07:58:57;;;;;;;16.60;10.40;;;;;;;2.60;71.47;100727.88;1731571;81;21338;-87
2023/12/07 08:02:05;;;;;;;17.52;10.53;;;;;;;2.59;71.79;100738.28;1694091;82;21306;-87
2023/12/07 08:05:14;;;;;;;20.85;10.38;;;;;;;2.79;71.22;100729.06;1716816;82;21878;-89
2023/12/07 08:08:21;;;;;;;20.32;10.65;;;;;;;2.73;71.24;100731.35;1711591;82;21271;-90
2023/12/07 08:11:27;;;;;;;21.42;10.78;;;;;;;2.76;71.38;100727.08;1711332;82;21328;-91
2023/12/07 08:14:34;;;;;;;18.23;10.53;;;;;;;3.03;70.58;100734.44;1704207;82;21333;-91
2023/12/07 08:17:41;;;;;;;14.90;10.25;;;;;;;2.83;71.23;100732.91;1707840;82;21303;-88
2023/12/07 08:20:48;;;;;;;21.33;13.48;;;;;;;2.85;71.36;100733.62;1729272;81;21911;-89
2023/12/07 08:23:55;;;;;;;23.25;11.50;;;;;;;2.96;71.21;100733.17;1711045;82;21275;-91
2023/12/07 08:27:03;;;;;;;19.55;12.28;;;;;;;2.91;71.37;100742.61;1710924;82;21320;-88
2023/12/07 08:30:09;;;;;;;21.70;11.95;;;;;;;2.86;71.51;100728.09;1700583;84;21951;-90
2023/12/07 08:33:16;;;;;;;17.70;12.30;;;;;;;2.91;71.54;100734.50;1704282;82;21271;-88
2023/12/07 08:36:22;;;;;;;20.12;12.40;;;;;;;2.89;71.66;100731.07;1704791;82;21350;-89
2023/12/07 08:39:29;;;;;;;72.32;57.00;;;;;;;2.83;71.80;100742.36;1698403;84;21896;-91
2023/12/07 08:42:35;;;;;;;23.73;11.60;;;;;;;2.83;71.61;100750.46;1695841;82;21329;-91
2023/12/07 08:45:42;;;;;;;89.58;70.28;;;;;;;2.92;71.53;100748.41;1705725;82;21869;-91
2023/12/07 08:48:48;;;;;;;22.45;14.25;;;;;;;3.06;70.66;100734.22;1700092;82;21331;-91
2023/12/07 08:51:55;;;;;;;20.85;11.45;;;;;;;2.93;71.07;100737.97;1702902;82;21284;-88
2023/12/07 08:55:04;;;;;;;23.45;15.08;;;;;;;3.10;70.80;100734.81;1708503;82;21280;-88
2023/12/07 08:58:10;;;;;;;21.02;14.47;;;;;;;3.41;69.95;100741.91;1691936;82;21304;-88
2023/12/07 09:01:17;;;;;;;21.12;13.05;;;;;;;3.40;69.62;100741.55;1700362;82;21279;-88
2023/12/07 09:04:24;;;;;;;18.37;11.93;;;;;;;3.29;69.89;100739.66;1706827;82;21284;-88
2023/12/07 09:07:30;;;;;;;20.27;11.73;;;;;;;3.35;70.05;100730.23;1710086;82;21921;-88
2023/12/07 09:10:36;;;;;;;24.52;11.35;;;;;;;3.46;69.83;100731.10;1731714;81;21291;-88
2023/12/07 09:13:44;;;;;;;20.08;11.08;;;;;;;3.50;69.71;100726.32;1741447;81;21829;-88
2023/12/07 09:16:55;;;;;;;20.12;10.10;;;;;;;3.37;69.84;100726.91;1715461;82;21296;-88
2023/12/07 09:20:01;;;;;;;25.43;12.53;;;;;;;3.25;70.04;100716.58;1744251;81;21297;-91
2023/12/07 09:23:07;;;;;;;23.75;16.23;;;;;;;3.35;70.09;100721.63;1714873;82;21283;-90
2023/12/07 09:26:13;;;;;;;40.80;30.48;;;;;;;3.33;70.05;100710.91;1711674;82;21343;-91
2023/12/07 09:29:21;;;;;;;38.58;22.35;;;;;;;3.30;69.66;100707.12;1706485;82;21818;-90
2023/12/07 09:32:28;;;;;;;21.10;10.10;;;;;;;3.35;69.65;100702.70;1708141;82;21927;-90
2023/12/07 09:35:35;;;;;;;87.92;74.17;;;;;;;3.54;69.11;100691.30;1699241;82;21612;-91
2023/12/07 09:38:42;;;;;;;57.20;39.58;;;;;;;3.63;68.89;100689.70;1687064;82;21944;-91
2023/12/07 09:41:50;;;;;;;20.10;12.65;;;;;;;3.55;68.83;100690.30;1668005;83;21335;-90
2023/12/07 09:44:58;;;;;;;20.08;12.88;;;;;;;3.54;69.11;100685.88;1681976;85;21293;-88
2023/12/07 09:48:04;;;;;;;20.35;11.85;;;;;;;3.62;69.03;100686.60;1684464;83;21324;-88
2023/12/07 09:51:12;;;;;;;57.05;48.52;;;;;;;3.59;68.87;100682.31;1682100;83;21682;-88
2023/12/07 09:54:19;;;;;;;88.97;71.50;;;;;;;3.58;68.63;100696.34;1684092;84;21293;-88
2023/12/07 09:57:26;;;;;;;31.10;22.37;;;;;;;3.55;67.94;100681.69;1700861;82;21295;-88
2023/12/07 10:00:34;;;;;;;39.70;32.93;;;;;;;3.58;67.66;100686.02;1691721;84;21307;-88
2023/12/07 10:03:42;;;;;;;68.95;56.65;;;;;;;3.67;67.54;100684.39;1661771;85;22002;-88
2023/12/07 10:06:51;;;;;;;17.70;11.90;;;;;;;3.67;67.38;100681.22;1675090;82;21891;-90
2023/12/07 10:09:58;;;;;;;19.95;14.28;;;;;;;3.76;67.32;100685.00;1662121;85;21559;-91
2023/12/07 10:13:08;;;;;;;24.43;19.40;;;;;;;3.84;67.28;100679.84;1673476;84;21224;-91
2023/12/07 10:16:19;;;;;;;44.80;38.88;;;;;;;3.82;66.76;100679.12;1680131;83;21307;-91
2023/12/07 10:19:25;;;;;;;54.13;43.23;;;;;;;3.64;66.48;100675.19;1686299;83;21295;-91
2023/12/07 10:22:33;;;;;;;28.42;24.90;;;;;;;3.54;66.62;100680.47;1685961;83;21886;-91
2023/12/07 10:25:45;;;;;;;92.20;75.00;;;;;;;3.53;66.53;100673.34;1679968;85;21293;-90
2023/12/07 10:28:54;;;;;;;66.30;55.70;;;;;;;3.61;66.42;100678.13;1680006;83;21303;-90
2023/12/07 10:32:08;;;;;;;68.67;60.48;;;;;;;3.72;66.04;100673.59;1677873;83;21840;-91
2023/12/07 10:35:16;;;;;;;22.48;15.72;;;;;;;3.59;66.47;100671.00;1685704;83;21261;-91
2023/12/07 10:38:24;;;;;;;28.23;24.47;;;;;;;3.79;66.05;100668.53;1686760;82;21328;-92
2023/12/07 10:41:32;;;;;;;68.72;61.18;;;;;;;3.69;66.28;100673.83;1700958;83;21275;-90
2023/12/07 10:44:37;;;;;;;111.90;92.88;;;;;;;3.64;66.15;100673.83;1688272;83;21272;-90
2023/12/07 10:47:46;;;;;;;46.10;32.67;;;;;;;3.60;66.08;100682.67;1699868;83;21300;-91
2023/12/07 10:50:54;;;;;;;83.67;67.60;;;;;;;3.62;66.32;100665.81;1707076;82;21652;-91
2023/12/07 10:54:02;;;;;;;73.65;61.37;;;;;;;3.71;66.21;100668.28;1692573;83;21314;-91
2023/12/07 10:57:09;;;;;;;27.17;22.48;;;;;;;3.73;66.56;100660.92;1696071;82;21323;-90
2023/12/07 11:00:17;;;;;;;104.20;82.08;;;;;;;3.63;66.79;100663.51;1694234;82;21323;-90
2023/12/07 11:03:25;;;;;;;29.70;25.35;;;;;;;3.59;67.22;100663.38;1695627;83;21283;-91
2023/12/07 11:06:32;;;;;;;25.02;21.02;;;;;;;3.39;67.86;100656.86;1699518;83;21288;-90
2023/12/07 11:09:41;;;;;;;81.60;63.65;;;;;;;3.46;68.01;100663.48;1693980;83;21197;-90
2023/12/07 11:12:56;;;;;;;;;;;;;;;3.48;68.96;100664.25;1696362;83;21320;-88
2023/12/07 11:16:04;;;;;;;45.43;37.17;;;;;;;3.40;68.93;100655.02;1693194;83;20296;-89
2023/12/07 11:19:11;;;;;;;13.15;10.53;;;;;;;3.38;69.04;100655.61;1697591;82;21307;-89
2023/12/07 11:22:23;;;;;;;25.02;21.57;;;;;;;3.57;68.60;100646.39;1700410;83;21834;-88
2023/12/07 11:25:30;;;;;;;24.23;20.48;;;;;;;3.54;68.50;100643.46;1706936;83;21838;-91
2023/12/07 11:28:44;;;;;;;26.40;20.00;;;;;;;3.52;68.54;100635.94;1681133;83;21279;-89
2023/12/07 11:31:51;;;;;;;18.07;14.50;;;;;;;3.58;68.06;100651.70;1703763;82;21292;-90
2023/12/07 11:34:57;;;;;;;12.58;7.92;;;;;;;3.76;67.47;100635.80;1703993;82;21311;-88
2023/12/07 11:38:18;;;;;;;13.72;9.80;;;;;;;3.81;67.12;100647.14;1700803;82;21284;-89
2023/12/07 11:41:24;;;;;;;11.33;8.35;;;;;;;3.81;67.07;100651.20;1694895;83;21884;-90
2023/12/07 11:44:41;;;;;;;13.43;9.15;;;;;;;3.81;67.04;100649.84;1693794;83;21844;-90
2023/12/07 11:51:25;;;;;;;12.45;8.55;;;;;;;3.87;66.86;100635.45;1714092;82;21165;-91
2023/12/07 11:54:32;;;;;;;8.95;7.33;;;;;;;3.80;66.90;100644.05;1718623;82;21910;-90
2023/12/07 11:57:38;;;;;;;10.35;7.72;;;;;;;3.57;67.62;100637.78;1708676;82;21517;-90
2023/12/07 12:00:46;;;;;;;13.90;7.70;;;;;;;3.36;68.25;100644.07;1739940;81;21826;-91
2023/12/07 12:03:53;;;;;;;11.03;7.37;;;;;;;3.31;68.68;100649.34;1689809;82;21311;-90
2023/12/07 12:06:59;;;;;;;13.40;8.00;;;;;;;3.33;68.61;100632.50;1686926;83;21331;-90
2023/12/07 12:10:06;;;;;;;12.40;8.30;;;;;;;3.32;68.64;100654.27;1668133;84;21276;-90
2023/12/07 12:13:12;;;;;;;16.87;8.15;;;;;;;3.23;68.99;100648.23;1700151;82;21352;-89
2023/12/07 12:16:19;;;;;;;8.00;6.60;;;;;;;3.24;69.10;100639.98;1702727;82;21349;-88
2023/12/07 12:19:25;;;;;;;10.53;7.80;;;;;;;3.36;68.80;100664.35;1699466;82;21884;-90
2023/12/07 12:22:33;;;;;;;10.25;7.53;;;;;;;3.38;68.64;100661.02;1707369;82;21295;-88
2023/12/07 12:25:40;;;;;;;8.88;7.15;;;;;;;3.59;68.23;100654.77;1721095;80;21272;-90
2023/12/07 12:28:46;;;;;;;11.28;8.15;;;;;;;3.81;67.83;100661.14;1698874;82;21339;-90
2023/12/07 12:31:53;;;;;;;8.73;6.92;;;;;;;3.84;67.55;100652.78;1711371;82;21257;-88
2023/12/07 12:35:01;;;;;;;10.43;8.03;;;;;;;3.89;67.57;100642.94;1731966;81;21303;-88
2023/12/07 12:38:08;;;;;;;9.78;7.53;;;;;;;3.74;67.75;100650.45;1710649;82;21277;-92
2023/12/07 12:41:15;;;;;;;10.85;7.28;;;;;;;3.79;67.84;100635.56;1716885;82;21953;-90
2023/12/07 12:44:21;;;;;;;10.55;6.83;;;;;;;3.84;67.73;100642.81;1721050;81;21666;-88
2023/12/07 12:47:22;;;;;;;9.65;6.87;;;;;;;3.87;67.47;100645.78;1719855;80;21292;-89
2023/12/07 12:50:17;;;;;;;13.43;7.78;;;;;;;3.69;68.12;100640.01;1713291;82;21911;-88
2023/12/07 12:53:25;;;;;;;11.20;7.60;;;;;;;3.74;68.05;100644.55;1706879;82;21371;-90
2023/12/07 12:56:32;;;;;;;13.10;7.62;;;;;;;3.57;68.64;100637.78;1708046;82;21824;-88
2023/12/07 12:59:39;;;;;;;11.55;7.50;;;;;;;3.52;69.02;100640.00;1714849;82;21290;-88
2023/12/07 13:02:46;;;;;;;15.63;8.50;;;;;;;3.53;69.15;100640.39;1677953;84;21293;-88
2023/12/07 13:05:53;;;;;;;13.58;8.63;;;;;;;3.57;69.11;100648.60;1683515;83;21269;-89
2023/12/07 13:09:01;;;;;;;14.55;9.28;;;;;;;3.45;69.51;100651.45;1707739;82;21255;-90
2023/12/07 13:12:07;;;;;;;19.10;8.53;;;;;;;3.55;69.49;100646.53;1724921;81;21695;-88
2023/12/07 13:15:15;;;;;;;13.22;9.60;;;;;;;3.63;69.21;100646.42;1701325;83;21321;-91
2023/12/07 13:18:22;;;;;;;16.42;10.03;;;;;;;3.60;69.40;100646.16;1706334;82;21990;-88
2023/12/07 13:21:28;;;;;;;15.32;8.15;;;;;;;3.59;69.55;100643.09;1732159;81;21705;-90
2023/12/07 13:24:35;;;;;;;19.90;9.55;;;;;;;3.70;69.23;100652.55;1739555;80;21999;-88
2023/12/07 13:27:45;;;;;;;16.93;9.95;;;;;;;3.83;69.08;100651.92;1719112;82;21295;-90
2023/12/07 13:30:54;;;;;;;17.82;9.80;;;;;;;3.99;68.55;100633.92;1707006;82;21698;-89
2023/12/07 13:34:00;;;;;;;15.10;9.33;;;;;;;3.89;68.79;100640.23;1714504;82;21327;-88
2023/12/07 13:37:08;;;;;;;17.77;9.45;;;;;;;3.50;69.99;100644.69;1739815;81;21642;-89
2023/12/07 13:40:17;;;;;;;14.80;9.53;;;;;;;3.42;70.38;100647.63;1707494;82;21307;-87
2023/12/07 13:43:24;;;;;;;16.67;11.00;;;;;;;3.42;70.69;100657.95;1685390;83;21284;-88
2023/12/07 13:46:31;;;;;;;18.20;10.25;;;;;;;3.47;70.57;100659.80;1707880;82;21891;-88
2023/12/07 13:49:38;;;;;;;14.83;9.00;;;;;;;3.58;70.41;100664.37;1677558;84;21307;-90
2023/12/07 13:52:46;;;;;;;16.17;9.63;;;;;;;3.55;70.42;100664.61;1683576;84;21300;-88
2023/12/07 13:55:54;;;;;;;13.93;9.33;;;;;;;3.45;70.42;100667.68;1691167;83;21310;-90
2023/12/07 13:59:02;;;;;;;14.38;9.80;;;;;;;3.53;70.29;100667.44;1693238;82;22002;-90
2023/12/07 14:02:10;;;;;;;20.65;9.73;;;;;;;3.37;70.78;100660.66;1668517;84;21606;-88
2023/12/07 14:05:16;;;;;;;15.63;9.70;;;;;;;3.43;70.82;100669.62;1683291;85;21919;-87
2023/12/07 14:08:23;;;;;;;15.35;9.60;;;;;;;3.49;70.55;100667.81;1686780;85;21967;-89
2023/12/07 14:11:29;;;;;;;15.15;10.50;;;;;;;3.50;70.52;100677.64;1698435;84;21311;-88
2023/12/07 14:14:37;;;;;;;13.48;8.45;;;;;;;3.48;70.51;100668.77;1707069;84;21295;-88
2023/12/07 14:17:44;;;;;;;16.48;10.45;;;;;;;3.57;70.32;100671.59;1687464;85;21305;-90
2023/12/07 14:20:51;;;;;;;18.10;10.28;;;;;;;3.59;70.32;100667.44;1687634;85;21327;-87
2023/12/07 14:23:58;;;;;;;15.53;10.63;;;;;;;3.62;70.01;100673.94;1687922;85;21329;-87
2023/12/07 14:27:07;;;;;;;18.50;10.63;;;;;;;3.83;69.44;100669.52;1689247;85;21846;-90
2023/12/07 14:30:21;;;;;;;18.42;11.90;;;;;;;3.83;69.30;100671.36;1689200;85;21321;-88